sensor_id;sensor_type;location;lat;lon;timestamp;pressure;altitude;pressure_sealevel;temperature;humidity
11017;BME280;54687;50.800;6.772;2023-02-16T00:01:15;61168.38;;;-144.06;59.13
11017;BME280;54687;50.800;6.772;2023-02-16T00:03:43;61180.97;;;-144.06;59.23
11017;BME280;54687;50.800;6.772;2023-02-16T00:06:10;61183.06;;;-144.06;59.26
11017;BME280;54687;50.800;6.772;2023-02-16T00:08:40;61172.56;;;-144.06;58.98
11017;BME280;54687;50.800;6.772;2023-02-16T00:11:12;61176.75;;;-144.06;59.23
11017;BME280;54687;50.800;6.772;2023-02-16T00:14:06;61197.72;;;-144.06;59.57
11017;BME280;54687;50.800;6.772;2023-02-16T00:16:35;61160.00;;;-144.06;59.22
11017;BME280;54687;50.800;6.772;2023-02-16T00:19:10;61180.97;;;-144.06;59.44
11017;BME280;54687;50.800;6.772;2023-02-16T00:21:39;61147.41;;;-144.06;59.45
11017;BME280;54687;50.800;6.772;2023-02-16T00:24:06;61189.34;;;-144.06;59.25
11017;BME280;54687;50.800;6.772;2023-02-16T00:26:33;61180.97;;;-144.06;59.44
11017;BME280;54687;50.800;6.772;2023-02-16T00:29:00;61162.09;;;-144.06;59.57
11017;BME280;54687;50.800;6.772;2023-02-16T00:31:29;61134.84;;;-144.06;59.38
11017;BME280;54687;50.800;6.772;2023-02-16T00:33:59;61193.53;;;-144.06;59.35
11017;BME280;54687;50.800;6.772;2023-02-16T00:36:28;61149.50;;;-144.06;59.74
11017;BME280;54687;50.800;6.772;2023-02-16T00:38:55;61168.38;;;-144.06;59.74
11017;BME280;54687;50.800;6.772;2023-02-16T00:41:23;61210.31;;;-144.06;59.79
11017;BME280;54687;50.800;6.772;2023-02-16T00:44:13;61151.59;;;-144.06;59.54
11017;BME280;54687;50.800;6.772;2023-02-16T00:46:41;61147.41;;;-144.06;60.05
11017;BME280;54687;50.800;6.772;2023-02-16T00:49:12;61149.50;;;-144.06;59.82
11017;BME280;54687;50.800;6.772;2023-02-16T00:51:39;61201.91;;;-144.06;60.24
11017;BME280;54687;50.800;6.772;2023-02-16T00:54:06;61145.31;;;-144.06;60.43
11017;BME280;54687;50.800;6.772;2023-02-16T00:56:32;61189.34;;;-144.06;60.53
11017;BME280;54687;50.800;6.772;2023-02-16T00:59:01;61193.53;;;-144.06;60.32
11017;BME280;54687;50.800;6.772;2023-02-16T01:01:30;61166.28;;;-144.06;60.66
11017;BME280;54687;50.800;6.772;2023-02-16T01:03:58;61164.19;;;-144.06;60.73
11017;BME280;54687;50.800;6.772;2023-02-16T01:06:28;61178.84;;;-144.06;60.72
11017;BME280;54687;50.800;6.772;2023-02-16T01:09:14;61172.56;;;-144.06;60.57
11017;BME280;54687;50.800;6.772;2023-02-16T01:11:59;61187.25;;;-144.06;60.93
11017;BME280;54687;50.800;6.772;2023-02-16T01:14:28;61168.38;;;-144.06;60.69
11017;BME280;54687;50.800;6.772;2023-02-16T01:16:56;61176.75;;;-144.06;60.91
11017;BME280;54687;50.800;6.772;2023-02-16T01:19:23;61191.44;;;-144.06;60.79
11017;BME280;54687;50.800;6.772;2023-02-16T01:21:51;61157.91;;;-144.06;61.02
11017;BME280;54687;50.800;6.772;2023-02-16T01:24:17;61206.09;;;-144.06;61.01
11017;BME280;54687;50.800;6.772;2023-02-16T01:26:46;61180.97;;;-144.06;60.60
11017;BME280;54687;50.800;6.772;2023-02-16T01:29:19;61218.69;;;-144.06;61.22
11017;BME280;54687;50.800;6.772;2023-02-16T01:31:46;61143.22;;;-144.06;61.04
11017;BME280;54687;50.800;6.772;2023-02-16T01:34:13;61197.72;;;-144.06;61.30
11017;BME280;54687;50.800;6.772;2023-02-16T01:36:42;61164.19;;;-144.06;61.25
11017;BME280;54687;50.800;6.772;2023-02-16T01:39:12;61164.19;;;-144.06;61.44
11017;BME280;54687;50.800;6.772;2023-02-16T01:41:52;61164.19;;;-144.06;61.11
11017;BME280;54687;50.800;6.772;2023-02-16T01:44:23;61189.34;;;-144.06;61.09
11017;BME280;54687;50.800;6.772;2023-02-16T01:46:52;61176.75;;;-144.06;61.14
11017;BME280;54687;50.800;6.772;2023-02-16T01:49:21;61183.06;;;-144.06;61.47
11017;BME280;54687;50.800;6.772;2023-02-16T01:51:52;61164.19;;;-144.06;61.31
11017;BME280;54687;50.800;6.772;2023-02-16T01:54:30;61180.97;;;-144.06;61.50
11017;BME280;54687;50.800;6.772;2023-02-16T01:57:02;61189.34;;;-144.06;61.45
11017;BME280;54687;50.800;6.772;2023-02-16T01:59:37;61139.03;;;-144.06;61.66
11017;BME280;54687;50.800;6.772;2023-02-16T02:02:11;61185.16;;;-144.06;61.46
11017;BME280;54687;50.800;6.772;2023-02-16T02:04:43;61197.72;;;-144.06;61.65
11017;BME280;54687;50.800;6.772;2023-02-16T02:07:33;61185.16;;;-144.06;61.62
11017;BME280;54687;50.800;6.772;2023-02-16T02:10:07;61147.41;;;-144.06;62.10
11017;BME280;54687;50.800;6.772;2023-02-16T02:12:41;61180.97;;;-144.06;61.83
11017;BME280;54687;50.800;6.772;2023-02-16T02:15:16;61166.28;;;-144.06;61.71
11017;BME280;54687;50.800;6.772;2023-02-16T02:17:43;61180.97;;;-144.06;61.61
11017;BME280;54687;50.800;6.772;2023-02-16T02:20:15;61210.31;;;-144.06;61.61
11017;BME280;54687;50.800;6.772;2023-02-16T02:23:17;61157.91;;;-144.06;61.78
11017;BME280;54687;50.800;6.772;2023-02-16T02:29:28;61143.22;;;-144.06;62.15
11017;BME280;54687;50.800;6.772;2023-02-16T02:32:06;61193.53;;;-144.06;61.80
11017;BME280;54687;50.800;6.772;2023-02-16T02:34:46;61153.69;;;-144.06;62.46
11017;BME280;54687;50.800;6.772;2023-02-16T02:37:19;61130.66;;;-144.06;61.90
11017;BME280;54687;50.800;6.772;2023-02-16T02:39:53;61189.34;;;-144.06;62.17
11017;BME280;54687;50.800;6.772;2023-02-16T02:42:29;61227.06;;;-144.06;62.45
11017;BME280;54687;50.800;6.772;2023-02-16T02:45:02;61185.16;;;-144.06;62.59
11017;BME280;54687;50.800;6.772;2023-02-16T02:47:37;61160.00;;;-144.06;61.99
11017;BME280;54687;50.800;6.772;2023-02-16T02:50:31;61157.91;;;-144.06;62.07
11017;BME280;54687;50.800;6.772;2023-02-16T02:53:02;61195.63;;;-144.06;61.78
11017;BME280;54687;50.800;6.772;2023-02-16T02:55:31;61227.06;;;-144.06;61.91
11017;BME280;54687;50.800;6.772;2023-02-16T02:58:18;61151.59;;;-144.06;61.96
11017;BME280;54687;50.800;6.772;2023-02-16T03:01:06;61193.53;;;-144.06;62.36
11017;BME280;54687;50.800;6.772;2023-02-16T03:03:39;61201.91;;;-144.06;62.18
11017;BME280;54687;50.800;6.772;2023-02-16T03:06:12;61193.53;;;-144.06;61.88
11017;BME280;54687;50.800;6.772;2023-02-16T03:08:43;61160.00;;;-144.06;62.34
11017;BME280;54687;50.800;6.772;2023-02-16T03:11:15;61176.75;;;-144.06;62.34
11017;BME280;54687;50.800;6.772;2023-02-16T03:14:03;61176.75;;;-144.06;62.34
11017;BME280;54687;50.800;6.772;2023-02-16T03:16:35;61210.31;;;-144.06;61.95
11017;BME280;54687;50.800;6.772;2023-02-16T03:19:04;61193.53;;;-144.06;62.24
11017;BME280;54687;50.800;6.772;2023-02-16T03:21:50;61210.31;;;-144.06;62.20
11017;BME280;54687;50.800;6.772;2023-02-16T03:24:34;61189.34;;;-144.06;61.96
11017;BME280;54687;50.800;6.772;2023-02-16T03:27:23;61166.28;;;-144.06;62.40
11017;BME280;54687;50.800;6.772;2023-02-16T03:30:10;61178.84;;;-144.06;62.24
11017;BME280;54687;50.800;6.772;2023-02-16T03:32:40;61189.34;;;-144.06;62.20
11017;BME280;54687;50.800;6.772;2023-02-16T03:35:07;61193.53;;;-144.06;62.35
11017;BME280;54687;50.800;6.772;2023-02-16T03:37:37;61210.31;;;-144.06;62.17
11017;BME280;54687;50.800;6.772;2023-02-16T03:40:07;61178.84;;;-144.06;61.76
11017;BME280;54687;50.800;6.772;2023-02-16T03:42:54;61183.06;;;-144.06;61.94
11017;BME280;54687;50.800;6.772;2023-02-16T03:45:23;61168.38;;;-144.06;61.77
11017;BME280;54687;50.800;6.772;2023-02-16T03:47:51;61176.75;;;-144.06;62.03
11017;BME280;54687;50.800;6.772;2023-02-16T03:50:18;61176.75;;;-144.06;61.92
11017;BME280;54687;50.800;6.772;2023-02-16T03:52:45;61145.31;;;-144.06;62.22
11017;BME280;54687;50.800;6.772;2023-02-16T03:55:11;61147.41;;;-144.06;62.05
11017;BME280;54687;50.800;6.772;2023-02-16T03:57:38;61172.56;;;-144.06;62.31
11017;BME280;54687;50.800;6.772;2023-02-16T04:00:06;61204.00;;;-144.06;62.36
11017;BME280;54687;50.800;6.772;2023-02-16T04:02:33;61170.47;;;-144.06;62.23
11017;BME280;54687;50.800;6.772;2023-02-16T04:05:01;61189.34;;;-144.06;62.07
11017;BME280;54687;50.800;6.772;2023-02-16T04:07:27;61191.44;;;-144.06;62.04
11017;BME280;54687;50.800;6.772;2023-02-16T04:09:54;61204.00;;;-144.06;62.17
11017;BME280;54687;50.800;6.772;2023-02-16T04:12:21;61166.28;;;-144.06;62.07
11017;BME280;54687;50.800;6.772;2023-02-16T04:15:03;61147.41;;;-144.06;62.29
11017;BME280;54687;50.800;6.772;2023-02-16T04:17:29;61197.72;;;-144.06;62.59
11017;BME280;54687;50.800;6.772;2023-02-16T04:19:56;61185.16;;;-144.06;62.83
11017;BME280;54687;50.800;6.772;2023-02-16T04:22:24;61155.81;;;-144.06;62.61
11017;BME280;54687;50.800;6.772;2023-02-16T04:24:51;61164.19;;;-144.06;63.00
11017;BME280;54687;50.800;6.772;2023-02-16T04:27:18;61180.97;;;-144.06;62.90
11017;BME280;54687;50.800;6.772;2023-02-16T04:29:44;61210.31;;;-144.06;62.98
11017;BME280;54687;50.800;6.772;2023-02-16T04:32:11;61189.34;;;-144.06;63.00
11017;BME280;54687;50.800;6.772;2023-02-16T04:34:38;61172.56;;;-144.06;63.60
11017;BME280;54687;50.800;6.772;2023-02-16T04:37:04;61155.81;;;-144.06;63.44
11017;BME280;54687;50.800;6.772;2023-02-16T04:39:32;61168.38;;;-144.06;63.49
11017;BME280;54687;50.800;6.772;2023-02-16T04:41:59;61162.09;;;-144.06;63.96
11017;BME280;54687;50.800;6.772;2023-02-16T04:44:25;61176.75;;;-144.06;63.72
11017;BME280;54687;50.800;6.772;2023-02-16T04:46:52;61180.97;;;-144.06;63.81
11017;BME280;54687;50.800;6.772;2023-02-16T04:49:19;61185.16;;;-144.06;63.61
11017;BME280;54687;50.800;6.772;2023-02-16T04:51:46;61210.31;;;-144.06;63.78
11017;BME280;54687;50.800;6.772;2023-02-16T04:54:13;61199.81;;;-144.06;64.07
11017;BME280;54687;50.800;6.772;2023-02-16T04:56:42;61231.25;;;-144.06;63.74
11017;BME280;54687;50.800;6.772;2023-02-16T04:59:09;61162.09;;;-144.06;63.84
11017;BME280;54687;50.800;6.772;2023-02-16T05:01:36;61206.09;;;-144.06;63.75
11017;BME280;54687;50.800;6.772;2023-02-16T05:04:03;61176.75;;;-144.06;63.96
11017;BME280;54687;50.800;6.772;2023-02-16T05:06:30;61166.28;;;-144.06;63.94
11017;BME280;54687;50.800;6.772;2023-02-16T05:08:56;61180.97;;;-144.06;63.89
11017;BME280;54687;50.800;6.772;2023-02-16T05:11:23;61201.91;;;-144.06;63.99
11017;BME280;54687;50.800;6.772;2023-02-16T05:14:20;61172.56;;;-144.06;63.96
11017;BME280;54687;50.800;6.772;2023-02-16T05:17:05;61191.44;;;-144.06;63.76
11017;BME280;54687;50.800;6.772;2023-02-16T05:19:32;61178.84;;;-144.06;63.90
11017;BME280;54687;50.800;6.772;2023-02-16T05:21:58;61229.16;;;-144.06;63.79
11017;BME280;54687;50.800;6.772;2023-02-16T05:24:25;61160.00;;;-144.06;63.89
11017;BME280;54687;50.800;6.772;2023-02-16T05:26:52;61180.97;;;-144.06;63.79
11017;BME280;54687;50.800;6.772;2023-02-16T05:29:20;61189.34;;;-144.06;63.92
11017;BME280;54687;50.800;6.772;2023-02-16T05:31:47;61149.50;;;-144.06;63.55
11017;BME280;54687;50.800;6.772;2023-02-16T05:34:13;61197.72;;;-144.06;63.97
11017;BME280;54687;50.800;6.772;2023-02-16T05:36:40;61139.03;;;-144.06;63.80
11017;BME280;54687;50.800;6.772;2023-02-16T05:39:07;61176.75;;;-144.06;64.07
11017;BME280;54687;50.800;6.772;2023-02-16T05:41:33;61210.31;;;-144.06;63.96
11017;BME280;54687;50.800;6.772;2023-02-16T05:44:01;61210.31;;;-144.06;64.11
11017;BME280;54687;50.800;6.772;2023-02-16T05:46:31;61180.97;;;-144.06;63.88
11017;BME280;54687;50.800;6.772;2023-02-16T05:48:59;61204.00;;;-144.06;63.83
11017;BME280;54687;50.800;6.772;2023-02-16T05:51:26;61201.91;;;-144.06;64.19
11017;BME280;54687;50.800;6.772;2023-02-16T05:53:53;61189.34;;;-144.06;63.76
11017;BME280;54687;50.800;6.772;2023-02-16T05:56:20;61176.75;;;-144.06;63.67
11017;BME280;54687;50.800;6.772;2023-02-16T05:58:47;61172.56;;;-144.06;63.55
11017;BME280;54687;50.800;6.772;2023-02-16T06:01:14;61206.09;;;-144.06;63.01
11017;BME280;54687;50.800;6.772;2023-02-16T06:03:43;61201.91;;;-144.06;63.37
11017;BME280;54687;50.800;6.772;2023-02-16T06:06:09;61172.56;;;-144.06;63.14
11017;BME280;54687;50.800;6.772;2023-02-16T06:08:37;61206.09;;;-144.06;63.40
11017;BME280;54687;50.800;6.772;2023-02-16T06:11:04;61164.19;;;-144.06;63.15
11017;BME280;54687;50.800;6.772;2023-02-16T06:13:51;61189.34;;;-144.06;62.95
11017;BME280;54687;50.800;6.772;2023-02-16T06:16:19;61214.50;;;-144.06;63.05
11017;BME280;54687;50.800;6.772;2023-02-16T06:18:47;61210.31;;;-144.06;63.43
11017;BME280;54687;50.800;6.772;2023-02-16T06:21:14;61174.66;;;-144.06;62.96
11017;BME280;54687;50.800;6.772;2023-02-16T06:23:40;61197.72;;;-144.06;63.08
11017;BME280;54687;50.800;6.772;2023-02-16T06:26:07;61189.34;;;-144.06;63.12
11017;BME280;54687;50.800;6.772;2023-02-16T06:28:33;61180.97;;;-144.06;63.15
11017;BME280;54687;50.800;6.772;2023-02-16T06:31:00;61201.91;;;-144.06;62.71
11017;BME280;54687;50.800;6.772;2023-02-16T06:33:27;61168.38;;;-144.06;62.32
11017;BME280;54687;50.800;6.772;2023-02-16T06:35:55;61183.06;;;-144.06;62.65
11017;BME280;54687;50.800;6.772;2023-02-16T06:38:21;61185.16;;;-144.06;62.28
11017;BME280;54687;50.800;6.772;2023-02-16T06:40:50;61189.34;;;-144.06;61.86
11017;BME280;54687;50.800;6.772;2023-02-16T06:43:17;61168.38;;;-144.06;61.70
11017;BME280;54687;50.800;6.772;2023-02-16T06:45:44;61193.53;;;-144.06;62.09
11017;BME280;54687;50.800;6.772;2023-02-16T06:48:10;61153.69;;;-144.06;62.00
11017;BME280;54687;50.800;6.772;2023-02-16T06:50:37;61160.00;;;-144.06;61.57
11017;BME280;54687;50.800;6.772;2023-02-16T06:53:05;61180.97;;;-144.06;61.50
11017;BME280;54687;50.800;6.772;2023-02-16T06:55:32;61143.22;;;-144.06;61.40
11017;BME280;54687;50.800;6.772;2023-02-16T06:58:01;61180.97;;;-144.06;60.88
11017;BME280;54687;50.800;6.772;2023-02-16T07:00:27;61193.53;;;-144.06;60.85
11017;BME280;54687;50.800;6.772;2023-02-16T07:02:55;61189.34;;;-144.06;60.63
11017;BME280;54687;50.800;6.772;2023-02-16T07:05:21;61201.91;;;-144.06;60.67
11017;BME280;54687;50.800;6.772;2023-02-16T07:07:48;61183.06;;;-144.06;60.84
11017;BME280;54687;50.800;6.772;2023-02-16T07:10:16;61155.81;;;-144.06;61.15
11017;BME280;54687;50.800;6.772;2023-02-16T07:12:44;61170.47;;;-144.06;60.85
11017;BME280;54687;50.800;6.772;2023-02-16T07:15:11;61172.56;;;-144.06;60.79
11017;BME280;54687;50.800;6.772;2023-02-16T07:17:38;61176.75;;;-144.06;60.70
11017;BME280;54687;50.800;6.772;2023-02-16T07:20:06;61201.91;;;-144.06;60.25
11017;BME280;54687;50.800;6.772;2023-02-16T07:22:33;61189.34;;;-144.06;60.13
11017;BME280;54687;50.800;6.772;2023-02-16T07:24:59;61172.56;;;-144.06;60.21
11017;BME280;54687;50.800;6.772;2023-02-16T07:27:27;61189.34;;;-144.06;59.99
11017;BME280;54687;50.800;6.772;2023-02-16T07:29:54;61176.75;;;-144.06;59.44
11017;BME280;54687;50.800;6.772;2023-02-16T07:32:21;61176.75;;;-144.06;59.48
11017;BME280;54687;50.800;6.772;2023-02-16T07:34:47;61180.97;;;-144.06;59.03
11017;BME280;54687;50.800;6.772;2023-02-16T07:37:14;61155.81;;;-144.06;59.33
11017;BME280;54687;50.800;6.772;2023-02-16T07:39:41;61157.91;;;-144.06;58.90
11017;BME280;54687;50.800;6.772;2023-02-16T07:42:07;61180.97;;;-144.06;59.13
11017;BME280;54687;50.800;6.772;2023-02-16T07:44:35;61180.97;;;-144.06;59.32
11017;BME280;54687;50.800;6.772;2023-02-16T07:47:02;61155.81;;;-144.06;58.96
11017;BME280;54687;50.800;6.772;2023-02-16T07:49:31;61136.94;;;-144.06;59.01
11017;BME280;54687;50.800;6.772;2023-02-16T07:51:58;61185.16;;;-144.06;58.86
11017;BME280;54687;50.800;6.772;2023-02-16T07:54:25;61172.56;;;-144.06;58.80
11017;BME280;54687;50.800;6.772;2023-02-16T07:56:51;61160.00;;;-144.06;58.54
11017;BME280;54687;50.800;6.772;2023-02-16T07:59:18;61191.44;;;-144.06;58.33
11017;BME280;54687;50.800;6.772;2023-02-16T08:01:46;61160.00;;;-144.06;58.50
11017;BME280;54687;50.800;6.772;2023-02-16T08:04:13;61180.97;;;-144.06;58.17
11017;BME280;54687;50.800;6.772;2023-02-16T08:06:40;61139.03;;;-144.06;58.17
11017;BME280;54687;50.800;6.772;2023-02-16T08:09:07;61160.00;;;-144.06;58.50
11017;BME280;54687;50.800;6.772;2023-02-16T08:11:33;61178.84;;;-144.06;58.34
11017;BME280;54687;50.800;6.772;2023-02-16T08:14:02;61151.59;;;-144.06;58.17
11017;BME280;54687;50.800;6.772;2023-02-16T08:16:29;61147.41;;;-144.06;57.98
11017;BME280;54687;50.800;6.772;2023-02-16T08:18:58;61164.19;;;-144.06;57.99
11017;BME280;54687;50.800;6.772;2023-02-16T08:21:28;61172.56;;;-144.06;57.76
11017;BME280;54687;50.800;6.772;2023-02-16T08:23:57;61193.53;;;-144.06;57.77
11017;BME280;54687;50.800;6.772;2023-02-16T08:26:26;61168.38;;;-144.06;58.04
11017;BME280;54687;50.800;6.772;2023-02-16T08:28:53;61208.22;;;-144.06;58.10
11017;BME280;54687;50.800;6.772;2023-02-16T08:31:22;61151.59;;;-144.06;57.85
11017;BME280;54687;50.800;6.772;2023-02-16T08:33:51;61143.22;;;-144.06;57.61
11017;BME280;54687;50.800;6.772;2023-02-16T08:36:22;61151.59;;;-144.06;57.58
11017;BME280;54687;50.800;6.772;2023-02-16T08:38:49;61218.69;;;-144.06;57.38
11017;BME280;54687;50.800;6.772;2023-02-16T08:41:17;61143.22;;;-144.06;57.27
11017;BME280;54687;50.800;6.772;2023-02-16T08:43:43;61151.59;;;-144.06;57.17
11017;BME280;54687;50.800;6.772;2023-02-16T08:46:10;61164.19;;;-144.06;56.98
11017;BME280;54687;50.800;6.772;2023-02-16T08:48:37;61101.28;;;-144.06;57.17
11017;BME280;54687;50.800;6.772;2023-02-16T08:51:05;61139.03;;;-144.06;57.14
11017;BME280;54687;50.800;6.772;2023-02-16T08:53:34;61172.56;;;-144.06;57.37
11017;BME280;54687;50.800;6.772;2023-02-16T08:56:02;61168.38;;;-144.06;57.46
11017;BME280;54687;50.800;6.772;2023-02-16T08:58:29;61166.28;;;-144.06;57.51
11017;BME280;54687;50.800;6.772;2023-02-16T09:00:56;61164.19;;;-144.06;57.43
11017;BME280;54687;50.800;6.772;2023-02-16T09:03:23;61189.34;;;-144.06;57.33
11017;BME280;54687;50.800;6.772;2023-02-16T09:05:51;61149.50;;;-144.06;57.42
11017;BME280;54687;50.800;6.772;2023-02-16T09:08:19;61132.75;;;-144.06;57.54
11017;BME280;54687;50.800;6.772;2023-02-16T09:10:47;61153.69;;;-144.06;57.58
11017;BME280;54687;50.800;6.772;2023-02-16T09:13:14;61120.16;;;-144.06;57.79
11017;BME280;54687;50.800;6.772;2023-02-16T09:15:41;61160.00;;;-144.06;57.82
11017;BME280;54687;50.800;6.772;2023-02-16T09:18:08;61132.75;;;-144.06;57.94
11017;BME280;54687;50.800;6.772;2023-02-16T09:20:37;61126.44;;;-144.06;58.04
11017;BME280;54687;50.800;6.772;2023-02-16T09:23:06;61143.22;;;-144.06;58.17
11017;BME280;54687;50.800;6.772;2023-02-16T09:25:34;61126.44;;;-144.06;58.15
11017;BME280;54687;50.800;6.772;2023-02-16T09:28:04;61168.38;;;-144.06;57.84
11017;BME280;54687;50.800;6.772;2023-02-16T09:30:36;61134.84;;;-144.06;57.48
11017;BME280;54687;50.800;6.772;2023-02-16T09:33:03;61141.13;;;-144.06;56.92
11017;BME280;54687;50.800;6.772;2023-02-16T09:35:30;61101.28;;;-144.06;56.57
11017;BME280;54687;50.800;6.772;2023-02-16T09:37:57;61143.22;;;-144.06;55.60
11017;BME280;54687;50.800;6.772;2023-02-16T09:40:24;61143.22;;;-144.06;54.83
11017;BME280;54687;50.800;6.772;2023-02-16T09:43:02;61122.25;;;-144.06;54.42
11017;BME280;54687;50.800;6.772;2023-02-16T09:45:40;61120.16;;;-144.06;53.87
11017;BME280;54687;50.800;6.772;2023-02-16T09:48:19;61105.50;;;-144.06;53.01
11017;BME280;54687;50.800;6.772;2023-02-16T09:50:50;61065.66;;;-144.06;52.85
11017;BME280;54687;50.800;6.772;2023-02-16T09:53:22;61126.44;;;-144.06;52.01
11017;BME280;54687;50.800;6.772;2023-02-16T09:55:58;61118.06;;;-144.06;51.73
11017;BME280;54687;50.800;6.772;2023-02-16T09:58:37;61067.75;;;-144.06;51.57
11017;BME280;54687;50.800;6.772;2023-02-16T10:01:16;61128.53;;;-144.06;51.37
11017;BME280;54687;50.800;6.772;2023-02-16T10:03:52;61118.06;;;-144.06;51.69
11017;BME280;54687;50.800;6.772;2023-02-16T10:06:28;61097.09;;;-144.06;51.77
11017;BME280;54687;50.800;6.772;2023-02-16T10:08:59;61059.38;;;-144.06;51.89
11017;BME280;54687;50.800;6.772;2023-02-16T10:11:32;61078.25;;;-144.06;51.88
11017;BME280;54687;50.800;6.772;2023-02-16T10:14:11;61084.53;;;-144.06;52.19
11017;BME280;54687;50.800;6.772;2023-02-16T10:16:48;61088.72;;;-144.06;52.31
11017;BME280;54687;50.800;6.772;2023-02-16T10:19:20;61092.91;;;-144.06;52.35
11017;BME280;54687;50.800;6.772;2023-02-16T10:21:51;61076.13;;;-144.06;52.53
11017;BME280;54687;50.800;6.772;2023-02-16T10:24:19;61105.50;;;-144.06;52.66
11017;BME280;54687;50.800;6.772;2023-02-16T10:26:49;61122.25;;;-144.06;52.53
11017;BME280;54687;50.800;6.772;2023-02-16T10:29:19;61095.00;;;-144.06;52.72
11017;BME280;54687;50.800;6.772;2023-02-16T10:31:54;61061.47;;;-144.06;52.68
11017;BME280;54687;50.800;6.772;2023-02-16T10:34:38;61074.03;;;-144.06;52.51
11017;BME280;54687;50.800;6.772;2023-02-16T10:37:20;61065.66;;;-144.06;52.44
11017;BME280;54687;50.800;6.772;2023-02-16T10:39:56;61082.44;;;-144.06;52.31
11017;BME280;54687;50.800;6.772;2023-02-16T10:42:33;61126.44;;;-144.06;52.30
11017;BME280;54687;50.800;6.772;2023-02-16T10:45:19;61105.50;;;-144.06;51.65
11017;BME280;54687;50.800;6.772;2023-02-16T10:47:48;61051.00;;;-144.06;51.39
11017;BME280;54687;50.800;6.772;2023-02-16T10:50:21;61063.56;;;-144.06;50.97
11017;BME280;54687;50.800;6.772;2023-02-16T10:52:49;61063.56;;;-144.06;50.65
11017;BME280;54687;50.800;6.772;2023-02-16T10:55:17;61048.88;;;-144.06;50.28
11017;BME280;54687;50.800;6.772;2023-02-16T10:57:50;61057.28;;;-144.06;49.84
11017;BME280;54687;50.800;6.772;2023-02-16T11:00:24;61080.34;;;-144.06;49.36
11017;BME280;54687;50.800;6.772;2023-02-16T11:02:56;61084.53;;;-144.06;48.51
11017;BME280;54687;50.800;6.772;2023-02-16T11:05:30;61021.63;;;-144.06;48.33
11017;BME280;54687;50.800;6.772;2023-02-16T11:07:59;61032.13;;;-144.06;47.76
11017;BME280;54687;50.800;6.772;2023-02-16T11:10:38;61076.13;;;-144.06;48.11
11017;BME280;54687;50.800;6.772;2023-02-16T11:13:06;61059.38;;;-144.06;48.04
11017;BME280;54687;50.800;6.772;2023-02-16T11:15:35;61038.41;;;-144.06;48.15
11017;BME280;54687;50.800;6.772;2023-02-16T11:18:07;61042.59;;;-144.06;48.05
11017;BME280;54687;50.800;6.772;2023-02-16T11:20:51;61013.25;;;-144.06;48.01
11017;BME280;54687;50.800;6.772;2023-02-16T11:23:22;61055.19;;;-144.06;48.17
11017;BME280;54687;50.800;6.772;2023-02-16T11:25:55;61084.53;;;-144.06;48.71
11017;BME280;54687;50.800;6.772;2023-02-16T11:28:27;61084.53;;;-144.06;48.44
11017;BME280;54687;50.800;6.772;2023-02-16T11:30:59;61053.09;;;-144.06;48.24
11017;BME280;54687;50.800;6.772;2023-02-16T11:33:28;61084.53;;;-144.06;48.67
11017;BME280;54687;50.800;6.772;2023-02-16T11:35:56;61101.28;;;-144.06;49.21
11017;BME280;54687;50.800;6.772;2023-02-16T11:38:26;61063.56;;;-144.06;49.74
11017;BME280;54687;50.800;6.772;2023-02-16T11:40:54;61097.09;;;-144.06;49.90
11017;BME280;54687;50.800;6.772;2023-02-16T11:43:25;61038.41;;;-144.06;49.96
11017;BME280;54687;50.800;6.772;2023-02-16T11:45:57;61053.09;;;-144.06;49.96
11017;BME280;54687;50.800;6.772;2023-02-16T11:48:26;61092.91;;;-144.06;49.69
11017;BME280;54687;50.800;6.772;2023-02-16T11:50:57;61055.19;;;-144.06;50.05
11017;BME280;54687;50.800;6.772;2023-02-16T11:53:27;61088.72;;;-144.06;50.07
11017;BME280;54687;50.800;6.772;2023-02-16T11:56:10;61025.84;;;-144.06;49.97
11017;BME280;54687;50.800;6.772;2023-02-16T11:58:38;61103.38;;;-144.06;50.13
11017;BME280;54687;50.800;6.772;2023-02-16T12:01:16;61053.09;;;-144.06;50.06
11017;BME280;54687;50.800;6.772;2023-02-16T12:03:58;61084.53;;;-144.06;50.55
11017;BME280;54687;50.800;6.772;2023-02-16T12:06:40;61051.00;;;-144.06;50.88
11017;BME280;54687;50.800;6.772;2023-02-16T12:09:19;61071.94;;;-144.06;51.30
11017;BME280;54687;50.800;6.772;2023-02-16T12:11:59;61053.09;;;-144.06;51.36
11017;BME280;54687;50.800;6.772;2023-02-16T12:14:39;61046.78;;;-144.06;51.20
11017;BME280;54687;50.800;6.772;2023-02-16T12:17:18;61040.50;;;-144.06;51.26
11017;BME280;54687;50.800;6.772;2023-02-16T12:19:51;61080.34;;;-144.06;51.14
11017;BME280;54687;50.800;6.772;2023-02-16T12:22:30;61067.75;;;-144.06;50.80
11017;BME280;54687;50.800;6.772;2023-02-16T12:25:07;61080.34;;;-144.06;50.63
11017;BME280;54687;50.800;6.772;2023-02-16T12:27:42;61051.00;;;-144.06;50.40
11017;BME280;54687;50.800;6.772;2023-02-16T12:30:22;61092.91;;;-144.06;50.22
11017;BME280;54687;50.800;6.772;2023-02-16T12:33:05;61105.50;;;-144.06;50.13
11017;BME280;54687;50.800;6.772;2023-02-16T12:35:51;61076.13;;;-144.06;50.09
11017;BME280;54687;50.800;6.772;2023-02-16T12:38:34;61076.13;;;-144.06;49.97
11017;BME280;54687;50.800;6.772;2023-02-16T12:41:13;61111.78;;;-144.06;49.75
11017;BME280;54687;50.800;6.772;2023-02-16T12:43:49;61071.94;;;-144.06;49.93
11017;BME280;54687;50.800;6.772;2023-02-16T12:46:21;61048.88;;;-144.06;50.09
11017;BME280;54687;50.800;6.772;2023-02-16T12:48:54;61046.78;;;-144.06;50.06
11017;BME280;54687;50.800;6.772;2023-02-16T12:51:26;61107.59;;;-144.06;49.86
11017;BME280;54687;50.800;6.772;2023-02-16T12:54:00;61095.00;;;-144.06;49.80
11017;BME280;54687;50.800;6.772;2023-02-16T12:56:31;61048.88;;;-144.06;49.67
11017;BME280;54687;50.800;6.772;2023-02-16T12:59:06;61078.25;;;-144.06;49.98
11017;BME280;54687;50.800;6.772;2023-02-16T13:01:38;61063.56;;;-144.06;50.47
11017;BME280;54687;50.800;6.772;2023-02-16T13:04:14;61088.72;;;-144.06;50.16